Ashland, New Hampshire
Current Conditions -  °F | °C
As of 11:15 AM on Wednesday 28 Jan 2015 (Local Time) from K1P1 Reporting Station
Broken Clouds Broken Clouds  
Wind Chill: -16°   Ceiling: 10000
Heat Index: -8°   Visibility: 10mi
Dew Point: -14°   Wind: 15mph
Humidity: 66%   Direction: 270°W
Pressure: 29.97"   Gusts: 21mph
Location:  43.7°N, 71.63°W
Report Text: K1P1 281615Z AUTO 27013G18KT 10SM SCT037 BKN100 M08/M13 A2997 RMK AO2 T10811135
Loading
Personal Weather Stations






























Interactive Weather Map New forecast layout! Learn more

10-Day Weather Forecast

Advertisements
Track Severe Weather on mobile